Time;durP1;ratioP1;P1;durP2;ratioP2;P2;SDS_P1;SDS_P2;PMS_P1;PMS_P2;Temp;Humidity;BMP_temperature;BMP_pressure;BME280_temperature;BME280_humidity;BME280_pressure;Samples;Min_cycle;Max_cycle;Signal;HPM_P1;HPM_P2
2021/06/03 00:02:18;;;;;;;5.22;2.50;;;21.40;73.20;;;;;;5052948;28;20029;-66
2021/06/03 00:04:44;;;;;;;8.50;3.20;;;21.30;73.70;;;;;;5071176;28;20036;-66
2021/06/03 00:07:12;;;;;;;5.97;2.70;;;21.20;74.10;;;;;;5040597;28;20029;-67
2021/06/03 00:09:38;;;;;;;5.28;2.72;;;21.20;74.50;;;;;;5060501;28;20466;-66
2021/06/03 00:12:08;;;;;;;4.13;3.13;;;21.20;74.40;;;;;;5033637;28;20036;-66
2021/06/03 00:14:34;;;;;;;4.07;2.75;;;21.20;74.80;;;;;;5051726;28;20028;-66
2021/06/03 00:17:00;;;;;;;8.02;3.35;;;21.20;75.00;;;;;;5050567;28;20059;-68
2021/06/03 00:19:26;;;;;;;6.35;3.00;;;21.20;75.20;;;;;;5032986;28;20025;-66
2021/06/03 00:21:54;;;;;;;6.75;2.80;;;21.20;75.40;;;;;;5032309;28;20098;-66
2021/06/03 00:24:20;;;;;;;6.53;3.72;;;21.10;75.90;;;;;;5032600;28;20044;-65
2021/06/03 00:26:46;;;;;;;5.35;3.42;;;21.10;75.80;;;;;;5032565;28;20064;-66
2021/06/03 00:29:13;;;;;;;6.03;2.92;;;21.00;76.70;;;;;;5031817;28;20033;-67
2021/06/03 00:31:39;;;;;;;5.43;3.40;;;21.00;75.90;;;;;;5032280;28;20031;-67
2021/06/03 00:34:05;;;;;;;4.65;3.25;;;21.00;76.40;;;;;;5049469;28;20032;-67
2021/06/03 00:36:30;;;;;;;4.95;3.38;;;20.90;75.60;;;;;;5050116;28;20036;-67
2021/06/03 00:38:56;;;;;;;5.10;3.97;;;20.90;75.20;;;;;;5049559;28;20025;-67
2021/06/03 00:41:21;;;;;;;9.77;4.57;;;20.90;75.30;;;;;;5050539;28;20025;-66
2021/06/03 00:43:47;;;;;;;6.20;4.90;;;20.90;74.90;;;;;;5049996;28;20456;-66
2021/06/03 00:46:14;;;;;;;6.05;4.65;;;20.70;75.40;;;;;;5049782;28;20241;-65
2021/06/03 00:48:39;;;;;;;6.63;4.05;;;20.60;75.80;;;;;;5031966;28;20377;-66
2021/06/03 00:51:07;;;;;;;7.47;5.03;;;20.60;75.80;;;;;;5031298;28;20041;-66
2021/06/03 00:53:36;;;;;;;5.25;4.50;;;20.50;75.70;;;;;;5032162;28;20454;-66
2021/06/03 00:56:04;;;;;;;4.45;4.00;;;20.40;75.80;;;;;;5031545;28;20029;-66
2021/06/03 00:58:30;;;;;;;7.13;3.92;;;20.30;76.20;;;;;;5049880;28;20025;-66
2021/06/03 01:00:57;;;;;;;9.13;4.32;;;20.30;76.20;;;;;;5049755;28;20449;-67
2021/06/03 01:03:24;;;;;;;11.95;4.20;;;20.20;76.30;;;;;;5049957;28;20033;-66
2021/06/03 01:05:59;;;;;;;7.00;4.53;;;20.20;76.50;;;;;;5050263;28;20074;-66
2021/06/03 01:08:32;;;;;;;8.40;5.65;;;20.20;76.40;;;;;;5050019;28;20115;-66
2021/06/03 01:11:35;;;;;;;7.65;5.03;;;20.20;77.00;;;;;;5049351;28;20044;-66
2021/06/03 01:14:03;;;;;;;6.07;4.30;;;20.20;77.50;;;;;;5031421;28;20033;-68
2021/06/03 01:16:30;;;;;;;4.72;3.60;;;20.10;77.10;;;;;;5049705;28;20091;-66
2021/06/03 01:18:58;;;;;;;5.82;3.80;;;20.10;77.40;;;;;;5049352;28;20520;-65
2021/06/03 01:21:43;;;;;;;5.40;3.83;;;20.10;78.20;;;;;;5031565;28;20493;-67
2021/06/03 01:24:23;;;;;;;4.50;3.67;;;20.10;78.00;;;;;;5049336;28;20057;-66
2021/06/03 01:26:51;;;;;;;7.25;5.25;;;19.90;78.40;;;;;;5031504;28;20536;-66
2021/06/03 01:29:18;;;;;;;4.78;3.97;;;19.80;79.00;;;;;;5048927;28;20340;-65
2021/06/03 01:31:46;;;;;;;4.90;3.65;;;19.70;79.50;;;;;;5049794;28;20021;-66
2021/06/03 01:34:12;;;;;;;5.40;3.83;;;19.70;79.60;;;;;;5049037;28;20105;-65
2021/06/03 01:36:38;;;;;;;5.00;3.35;;;19.80;79.70;;;;;;5031815;28;20033;-66
2021/06/03 01:39:08;;;;;;;3.38;2.95;;;19.80;79.60;;;;;;5031291;28;20554;-66
2021/06/03 01:41:34;;;;;;;5.22;3.53;;;19.80;79.50;;;;;;5032165;28;20160;-66
2021/06/03 01:44:02;;;;;;;4.05;2.97;;;19.90;79.50;;;;;;5049540;28;20061;-66
2021/06/03 01:46:28;;;;;;;4.07;3.30;;;19.90;79.90;;;;;;5031649;28;20044;-66
2021/06/03 01:48:56;;;;;;;5.47;3.72;;;19.80;80.00;;;;;;5051422;28;20033;-66
2021/06/03 01:51:24;;;;;;;4.80;3.65;;;19.80;80.30;;;;;;5034720;28;20049;-65
2021/06/03 01:53:50;;;;;;;4.50;3.70;;;19.70;80.60;;;;;;5035430;28;20033;-66
2021/06/03 01:56:17;;;;;;;6.97;4.15;;;19.70;80.70;;;;;;5053203;28;20039;-66
2021/06/03 01:58:44;;;;;;;4.30;3.33;;;19.80;80.40;;;;;;5053608;28;20029;-66
2021/06/03 02:01:10;;;;;;;5.07;3.58;;;19.70;81.00;;;;;;5035051;28;20145;-66
2021/06/03 02:03:36;;;;;;;7.13;3.60;;;19.60;81.60;;;;;;5053520;28;20029;-65
2021/06/03 02:06:04;;;;;;;5.78;3.60;;;19.50;81.60;;;;;;5053363;28;20462;-65
2021/06/03 02:08:30;;;;;;;6.05;3.42;;;19.60;82.20;;;;;;5053564;28;20403;-66
2021/06/03 02:10:57;;;;;;;7.30;4.13;;;19.60;82.60;;;;;;5035707;28;20029;-66
2021/06/03 02:13:37;;;;;;;4.85;3.58;;;19.50;82.50;;;;;;5052824;28;20043;-65
2021/06/03 02:16:27;;;;;;;4.65;3.42;;;19.50;82.40;;;;;;5034744;28;20545;-66
2021/06/03 02:19:05;;;;;;;5.35;3.58;;;19.60;82.80;;;;;;5035585;28;20055;-65
2021/06/03 02:21:34;;;;;;;5.70;3.58;;;19.50;82.90;;;;;;5035303;28;20125;-65
2021/06/03 02:24:01;;;;;;;4.38;3.00;;;19.50;83.10;;;;;;5052352;28;20469;-72
2021/06/03 02:26:27;;;;;;;8.15;3.67;;;19.40;83.30;;;;;;5053449;28;20061;-65
2021/06/03 02:28:55;;;;;;;14.10;4.30;;;19.50;84.00;;;;;;5018574;28;20546;-68
2021/06/03 02:31:21;;;;;;;8.05;3.45;;;19.50;83.60;;;;;;5034549;28;20041;-65
2021/06/03 02:33:49;;;;;;;6.57;3.53;;;19.50;83.70;;;;;;5053041;28;20079;-66
2021/06/03 02:36:15;;;;;;;6.00;3.65;;;19.50;84.20;;;;;;5052724;28;20150;-66
2021/06/03 02:38:41;;;;;;;4.25;3.17;;;19.50;83.50;;;;;;5035084;28;20111;-66
2021/06/03 02:41:08;;;;;;;5.38;3.47;;;19.50;83.70;;;;;;5052476;28;20025;-66
2021/06/03 02:43:35;;;;;;;6.22;3.42;;;19.40;84.40;;;;;;5052981;28;20037;-66
2021/06/03 02:46:01;;;;;;;4.50;2.95;;;19.40;84.70;;;;;;5052174;28;20048;-81
2021/06/03 02:48:27;;;;;;;12.85;3.42;;;19.40;84.80;;;;;;5052683;28;20021;-66
2021/06/03 02:50:53;;;;;;;4.40;3.53;;;19.20;85.20;;;;;;5034357;28;20056;-66
2021/06/03 02:53:19;;;;;;;4.03;3.20;;;19.30;85.70;;;;;;5052152;28;20048;-67
2021/06/03 02:55:45;;;;;;;8.27;4.60;;;19.30;85.70;;;;;;5053051;28;20029;-66
2021/06/03 02:58:11;;;;;;;5.70;3.38;;;19.20;85.80;;;;;;5034097;28;20077;-66
2021/06/03 03:00:37;;;;;;;5.25;3.22;;;19.20;86.20;;;;;;5052215;28;20025;-66
2021/06/03 03:03:05;;;;;;;3.58;3.08;;;19.30;86.40;;;;;;5034203;28;20025;-67
2021/06/03 03:05:31;;;;;;;7.05;3.20;;;19.10;86.60;;;;;;5052573;28;20029;-66
2021/06/03 03:07:57;;;;;;;3.78;3.35;;;19.20;86.70;;;;;;5034449;28;20052;-66
2021/06/03 03:10:27;;;;;;;4.60;3.35;;;19.10;86.80;;;;;;5052214;28;20462;-66
2021/06/03 03:12:53;;;;;;;5.88;3.38;;;19.20;86.90;;;;;;5052521;28;20036;-66
2021/06/03 03:15:19;;;;;;;5.75;3.17;;;19.10;87.20;;;;;;5033860;28;20083;-66
2021/06/03 03:17:45;;;;;;;5.88;3.22;;;19.10;87.40;;;;;;5034391;28;20025;-66
2021/06/03 03:20:13;;;;;;;6.30;3.60;;;19.10;87.50;;;;;;5051448;28;20493;-65
2021/06/03 03:22:39;;;;;;;7.53;3.60;;;18.90;88.10;;;;;;5052219;28;20033;-67
2021/06/03 03:25:08;;;;;;;4.05;3.33;;;18.70;89.00;;;;;;5051882;28;20021;-66
2021/06/03 03:27:34;;;;;;;5.72;3.75;;;18.70;88.90;;;;;;5052278;28;20029;-66
2021/06/03 03:30:00;;;;;;;5.63;3.25;;;18.80;89.00;;;;;;5052549;28;20025;-66
2021/06/03 03:32:26;;;;;;;6.68;3.47;;;18.90;89.20;;;;;;5051890;28;20021;-66
2021/06/03 03:34:52;;;;;;;4.38;3.78;;;18.90;88.90;;;;;;5033929;28;20425;-66
2021/06/03 03:37:17;;;;;;;4.85;3.42;;;18.90;88.50;;;;;;5033425;28;20029;-66
2021/06/03 03:39:43;;;;;;;4.57;3.55;;;18.90;88.40;;;;;;5051634;28;20442;-65
2021/06/03 03:42:09;;;;;;;5.43;4.28;;;18.90;87.90;;;;;;5051158;28;20025;-66
2021/06/03 03:44:35;;;;;;;6.43;4.10;;;18.80;87.90;;;;;;5033951;28;20033;-65
2021/06/03 03:47:01;;;;;;;5.93;4.20;;;18.70;88.10;;;;;;5051913;28;20442;-65
2021/06/03 03:49:26;;;;;;;8.18;4.60;;;18.70;87.40;;;;;;5051161;28;20036;-65
2021/06/03 03:51:52;;;;;;;6.20;4.50;;;18.70;87.10;;;;;;5033264;28;20045;-65
2021/06/03 03:54:18;;;;;;;5.55;4.20;;;18.60;87.10;;;;;;5049251;28;20041;-65
2021/06/03 03:56:44;;;;;;;5.75;3.47;;;18.60;87.70;;;;;;5033534;28;20461;-66
2021/06/03 03:59:09;;;;;;;5.03;3.95;;;18.40;87.90;;;;;;5033048;28;20104;-66
2021/06/03 04:01:35;;;;;;;9.05;4.68;;;18.50;88.10;;;;;;5033794;28;20382;-66
2021/06/03 04:04:01;;;;;;;5.15;3.55;;;18.40;88.20;;;;;;5051324;28;20044;-66
2021/06/03 04:06:27;;;;;;;6.50;4.40;;;18.50;88.60;;;;;;5032492;28;20032;-65
2021/06/03 04:08:52;;;;;;;6.15;4.20;;;18.60;88.30;;;;;;5051173;28;20062;-65
2021/06/03 04:11:19;;;;;;;5.78;4.50;;;18.70;88.30;;;;;;5050254;28;20467;-66
2021/06/03 04:13:46;;;;;;;5.32;3.47;;;18.80;88.40;;;;;;5050389;28;20126;-65
2021/06/03 04:16:11;;;;;;;7.53;4.45;;;18.80;88.10;;;;;;5050562;28;20087;-66
2021/06/03 04:18:38;;;;;;;4.80;3.70;;;18.50;88.30;;;;;;5033230;28;20021;-65
2021/06/03 04:21:04;;;;;;;7.00;4.15;;;18.50;89.10;;;;;;5033030;28;20331;-66
2021/06/03 04:23:30;;;;;;;7.00;4.15;;;18.30;89.70;;;;;;5032112;28;20040;-66
2021/06/03 04:25:56;;;;;;;9.07;4.72;;;18.40;89.40;;;;;;5051050;28;20041;-66
2021/06/03 04:28:21;;;;;;;6.25;3.90;;;18.50;89.10;;;;;;5050090;28;20029;-66
2021/06/03 04:30:47;;;;;;;6.40;4.00;;;18.60;89.20;;;;;;5050813;28;20025;-66
2021/06/03 04:33:20;;;;;;;5.38;4.10;;;18.50;89.10;;;;;;5049983;28;20025;-65
2021/06/03 04:35:46;;;;;;;5.60;3.85;;;18.20;90.20;;;;;;5050699;28;20115;-65
2021/06/03 04:38:12;;;;;;;11.10;4.85;;;18.30;90.20;;;;;;5031916;28;20111;-66
2021/06/03 04:40:38;;;;;;;5.90;4.03;;;18.30;90.30;;;;;;5032433;28;20035;-65
2021/06/03 04:43:04;;;;;;;7.72;4.88;;;18.40;90.40;;;;;;5050371;28;20024;-66
2021/06/03 04:45:34;;;;;;;8.32;4.38;;;18.50;90.00;;;;;;5031855;28;20027;-65
2021/06/03 04:47:59;;;;;;;6.47;4.45;;;18.50;90.20;;;;;;5050887;28;20401;-65
2021/06/03 04:50:25;;;;;;;11.65;6.55;;;18.50;90.30;;;;;;5049482;28;20552;-64
2021/06/03 04:52:52;;;;;;;6.35;4.03;;;18.50;90.50;;;;;;5032509;28;20028;-65
2021/06/03 04:55:20;;;;;;;5.78;4.20;;;18.70;90.20;;;;;;5032091;28;20029;-66
2021/06/03 04:57:46;;;;;;;7.20;4.63;;;18.80;90.30;;;;;;5032186;28;20028;-66
2021/06/03 05:00:24;;;;;;;7.53;4.68;;;18.90;90.20;;;;;;5049712;28;20021;-65
2021/06/03 05:02:50;;;;;;;8.23;4.45;;;18.90;90.20;;;;;;5032176;28;20040;-65
2021/06/03 05:05:16;;;;;;;7.30;4.43;;;19.10;90.10;;;;;;5031674;28;20518;-66
2021/06/03 05:07:43;;;;;;;4.55;3.83;;;19.30;89.30;;;;;;5050410;28;20063;-66
2021/06/03 05:10:10;;;;;;;8.63;5.07;;;19.10;89.20;;;;;;5050167;28;20017;-66
2021/06/03 05:12:36;;;;;;;4.78;4.15;;;19.20;89.40;;;;;;5050234;28;20028;-66
2021/06/03 05:15:05;;;;;;;6.40;4.45;;;19.30;89.20;;;;;;5050073;28;20029;-66
2021/06/03 05:17:30;;;;;;;4.50;4.00;;;19.10;89.70;;;;;;5049464;28;20049;-66
2021/06/03 05:19:56;;;;;;;5.00;3.80;;;19.30;89.50;;;;;;5049881;28;20093;-66
2021/06/03 05:22:22;;;;;;;7.70;4.13;;;19.30;89.20;;;;;;5049701;28;20028;-67
2021/06/03 05:24:47;;;;;;;5.97;3.88;;;19.30;89.60;;;;;;5049580;28;20036;-66
2021/06/03 05:27:13;;;;;;;5.57;4.15;;;19.50;89.20;;;;;;5031772;28;20028;-66
2021/06/03 05:29:39;;;;;;;5.57;3.88;;;19.70;88.50;;;;;;5050005;28;20025;-65
2021/06/03 05:32:05;;;;;;;5.93;4.20;;;19.80;87.70;;;;;;5049961;28;20131;-65
2021/06/03 05:34:30;;;;;;;5.85;3.60;;;19.80;87.50;;;;;;5049313;28;20740;-66
2021/06/03 05:36:58;;;;;;;6.60;4.25;;;19.70;87.80;;;;;;5050068;28;20132;-66
2021/06/03 05:39:23;;;;;;;6.57;3.80;;;19.80;88.00;;;;;;5049236;28;20025;-66
2021/06/03 05:41:49;;;;;;;4.10;3.60;;;19.80;88.20;;;;;;5050259;28;20025;-69
2021/06/03 05:44:16;;;;;;;3.97;3.58;;;19.80;88.10;;;;;;5031652;28;20382;-67
2021/06/03 05:46:42;;;;;;;6.95;3.38;;;19.80;88.60;;;;;;5032329;28;20445;-65
2021/06/03 05:49:09;;;;;;;3.83;3.33;;;19.70;88.80;;;;;;5032079;28;20029;-65
2021/06/03 05:51:36;;;;;;;5.70;3.67;;;19.60;89.00;;;;;;5027642;28;20057;-66
2021/06/03 05:54:02;;;;;;;6.00;4.45;;;19.60;89.00;;;;;;5028535;28;20040;-66
2021/06/03 05:56:28;;;;;;;4.47;3.30;;;19.50;90.20;;;;;;5029592;28;20025;-66
2021/06/03 05:58:54;;;;;;;6.85;3.85;;;19.50;90.40;;;;;;5030025;28;20036;-66
2021/06/03 06:01:21;;;;;;;7.78;4.47;;;19.70;90.50;;;;;;5027903;28;20029;-66
2021/06/03 06:06:25;;;;;;;5.97;3.75;;;19.40;90.20;;;;;;5029721;28;20026;-66
2021/06/03 06:08:56;;;;;;;4.82;3.85;;;19.50;90.30;;;;;;5028418;28;20371;-67
2021/06/03 06:11:22;;;;;;;;;;;19.50;90.40;;;;;;5028342;28;20030;-66
2021/06/03 06:13:48;;;;;;;6.95;4.30;;;19.70;90.00;;;;;;5028833;28;19943;-66
2021/06/03 06:16:14;;;;;;;6.30;3.72;;;19.80;90.00;;;;;;5029148;28;20504;-67
2021/06/03 06:18:41;;;;;;;7.65;3.95;;;20.00;89.50;;;;;;5030005;28;20017;-66
2021/06/03 06:21:09;;;;;;;6.30;3.78;;;20.10;89.10;;;;;;5029816;28;20443;-66
2021/06/03 06:23:36;;;;;;;4.20;3.42;;;20.00;89.10;;;;;;5029401;28;20044;-66
2021/06/03 06:26:04;;;;;;;5.28;3.70;;;20.20;89.30;;;;;;5028257;28;20049;-66
2021/06/03 06:28:30;;;;;;;11.32;5.85;;;20.30;88.90;;;;;;5028842;28;20028;-66
2021/06/03 06:30:57;;;;;;;15.93;6.50;;;20.40;88.60;;;;;;5029578;28;20025;-67
2021/06/03 06:33:23;;;;;;;5.25;4.38;;;20.50;89.00;;;;;;5027311;28;20045;-66
2021/06/03 06:35:49;;;;;;;6.28;4.72;;;20.40;88.70;;;;;;5029517;28;20041;-65
2021/06/03 06:38:17;;;;;;;11.35;4.88;;;20.40;88.30;;;;;;5032283;28;20079;-73
2021/06/03 06:40:43;;;;;;;5.53;4.50;;;20.60;88.10;;;;;;5031827;28;20025;-65
2021/06/03 06:43:08;;;;;;;8.85;4.28;;;20.60;88.70;;;;;;5032969;28;20030;-66
2021/06/03 06:45:37;;;;;;;5.93;4.78;;;20.70;88.60;;;;;;5031044;28;20525;-67
2021/06/03 06:48:05;;;;;;;4.65;3.83;;;20.80;88.10;;;;;;5014836;28;20030;-65
2021/06/03 06:50:31;;;;;;;8.02;4.18;;;21.00;87.60;;;;;;5034180;28;20099;-65
2021/06/03 06:52:56;;;;;;;4.05;3.60;;;21.10;87.70;;;;;;5034274;28;20029;-66
2021/06/03 06:55:22;;;;;;;5.75;4.18;;;21.00;87.50;;;;;;5033955;28;20111;-66
2021/06/03 06:57:51;;;;;;;4.57;3.80;;;21.20;87.20;;;;;;5034484;28;20049;-66
2021/06/03 07:00:17;;;;;;;6.30;4.65;;;21.50;85.80;;;;;;5033432;28;20429;-67
2021/06/03 07:02:43;;;;;;;7.63;4.07;;;21.40;85.50;;;;;;5052200;28;20032;-66
2021/06/03 07:05:09;;;;;;;8.30;4.63;;;21.50;85.60;;;;;;5051905;28;20385;-66
2021/06/03 07:07:36;;;;;;;5.95;3.92;;;21.30;86.10;;;;;;5033312;28;20105;-66
2021/06/03 07:10:03;;;;;;;4.13;3.53;;;21.80;85.40;;;;;;5051769;28;20029;-66
2021/06/03 07:12:30;;;;;;;4.78;3.33;;;22.10;84.10;;;;;;5033480;28;20081;-66
2021/06/03 07:14:55;;;;;;;6.45;3.70;;;22.20;83.70;;;;;;5033698;28;20440;-66
2021/06/03 07:17:21;;;;;;;5.75;4.05;;;22.40;83.40;;;;;;5051364;28;20079;-65
2021/06/03 07:19:46;;;;;;;6.95;3.47;;;22.70;83.00;;;;;;5051684;28;20343;-66
2021/06/03 07:22:12;;;;;;;6.97;3.95;;;22.40;82.80;;;;;;5052173;28;20037;-66
2021/06/03 07:24:40;;;;;;;6.15;3.80;;;22.40;82.60;;;;;;5033152;28;20190;-66
2021/06/03 07:27:06;;;;;;;7.53;3.60;;;22.50;82.50;;;;;;5051799;28;20025;-65
2021/06/03 07:29:32;;;;;;;8.55;3.10;;;22.70;82.20;;;;;;5051074;28;20513;-66
2021/06/03 07:31:58;;;;;;;4.97;3.28;;;22.70;82.70;;;;;;5051837;28;20025;-66
2021/06/03 07:34:23;;;;;;;11.00;3.70;;;23.00;81.80;;;;;;5051107;28;20106;-67
2021/06/03 07:36:49;;;;;;;6.20;3.50;;;23.00;80.80;;;;;;5033834;28;20439;-66
2021/06/03 07:39:15;;;;;;;4.28;3.10;;;23.20;81.10;;;;;;5051393;28;20348;-67
2021/06/03 07:41:40;;;;;;;5.57;2.92;;;23.10;81.20;;;;;;5051131;28;20024;-66
2021/06/03 07:44:06;;;;;;;5.07;3.40;;;22.90;81.30;;;;;;5051443;28;20104;-66
2021/06/03 07:46:33;;;;;;;4.57;3.13;;;23.00;81.00;;;;;;5050511;28;20041;-65
2021/06/03 07:48:59;;;;;;;3.55;3.10;;;23.20;80.90;;;;;;5033325;28;20025;-65
2021/06/03 07:51:26;;;;;;;8.65;3.40;;;23.20;81.20;;;;;;5050423;28;20048;-66
2021/06/03 07:53:51;;;;;;;4.15;2.45;;;23.30;79.60;;;;;;5050827;28;20068;-66
2021/06/03 07:56:17;;;;;;;4.10;2.72;;;23.30;80.60;;;;;;5051470;28;20069;-65
2021/06/03 07:58:43;;;;;;;2.83;2.55;;;23.10;81.00;;;;;;5032421;28;20071;-66
2021/06/03 08:01:09;;;;;;;2.65;2.35;;;23.10;81.30;;;;;;5032780;28;20048;-67
2021/06/03 08:03:36;;;;;;;3.22;2.65;;;23.30;80.60;;;;;;5031989;28;20439;-66
2021/06/03 08:06:02;;;;;;;4.57;2.20;;;23.40;80.30;;;;;;5050708;28;20070;-66
2021/06/03 08:08:28;;;;;;;2.58;2.38;;;23.40;80.50;;;;;;5049867;28;20029;-67
2021/06/03 08:10:54;;;;;;;8.10;2.60;;;23.80;80.90;;;;;;5032645;28;20028;-67
2021/06/03 08:13:20;;;;;;;4.30;2.60;;;24.30;79.20;;;;;;5050456;28;20025;-75
2021/06/03 08:15:46;;;;;;;2.85;2.47;;;23.90;79.80;;;;;;5050367;28;20470;-65
2021/06/03 08:18:13;;;;;;;6.72;3.10;;;24.10;79.30;;;;;;5050433;28;20108;-66
2021/06/03 08:20:47;;;;;;;3.03;2.58;;;23.90;80.00;;;;;;5031448;28;20470;-66
2021/06/03 08:23:16;;;;;;;5.25;3.08;;;24.10;80.10;;;;;;5050242;28;20029;-66
2021/06/03 08:25:43;;;;;;;5.93;2.20;;;24.80;78.20;;;;;;5030772;28;20059;-66
2021/06/03 08:28:09;;;;;;;3.53;2.38;;;24.70;78.30;;;;;;5049666;28;20029;-66
2021/06/03 08:30:35;;;;;;;3.35;2.28;;;25.10;77.70;;;;;;5031815;28;20124;-66
2021/06/03 08:33:02;;;;;;;5.38;2.10;;;25.50;76.40;;;;;;5049764;28;20033;-66
2021/06/03 08:35:28;;;;;;;3.17;2.35;;;25.50;75.50;;;;;;5030639;28;20425;-66
2021/06/03 08:37:56;;;;;;;3.92;2.42;;;25.90;75.10;;;;;;5049343;28;20025;-67
2021/06/03 08:40:28;;;;;;;4.47;2.53;;;26.00;75.40;;;;;;5031128;28;20359;-86
2021/06/03 08:42:56;;;;;;;5.13;2.10;;;26.30;74.70;;;;;;5032098;28;20028;-53
2021/06/03 08:45:27;;;;;;;2.97;1.92;;;25.70;74.70;;;;;;5049692;28;20132;-54
2021/06/03 08:47:53;;;;;;;;;;;25.80;75.90;;;;;;5050440;28;20032;-69
2021/06/03 08:50:19;;;;;;;5.72;2.22;;;26.00;76.40;;;;;;5049200;28;20286;-69
2021/06/03 08:52:45;;;;;;;4.13;2.42;;;26.00;75.30;;;;;;5032231;28;20025;-70
2021/06/03 08:56:14;;;;;;;5.57;2.45;;;26.10;75.00;;;;;;5032697;28;20040;-70
2021/06/03 08:58:04;;;;;;;2.20;1.75;;;26.20;74.70;;;;;;5048742;28;20113;-68
2021/06/03 09:00:32;;;;;;;4.38;2.00;;;26.20;74.00;;;;;;5049284;28;20028;-69
2021/06/03 09:02:57;;;;;;;2.42;1.70;;;26.20;75.20;;;;;;5049591;28;20420;-70
2021/06/03 09:05:25;;;;;;;4.00;2.05;;;26.30;75.40;;;;;;5048916;28;20025;-85
2021/06/03 09:07:51;;;;;;;2.50;1.50;;;26.50;74.60;;;;;;5031072;28;20033;-69
2021/06/03 09:10:27;;;;;;;3.45;1.88;;;26.30;74.70;;;;;;5048859;28;20108;-68
2021/06/03 09:13:15;;;;;;;8.35;2.25;;;26.30;74.70;;;;;;5031377;28;20497;-68
2021/06/03 09:15:44;;;;;;;3.95;1.70;;;26.20;74.20;;;;;;5030449;28;20043;-68
2021/06/03 09:18:11;;;;;;;3.85;2.03;;;26.20;74.80;;;;;;5030952;28;20021;-69
2021/06/03 09:20:39;;;;;;;3.10;1.98;;;26.50;73.70;;;;;;5048424;28;20454;-68
2021/06/03 09:23:05;;;;;;;2.30;1.85;;;26.50;74.20;;;;;;5048703;28;20064;-69
2021/06/03 09:25:40;;;;;;;2.75;1.90;;;26.80;74.40;;;;;;5048485;28;20036;-69
2021/06/03 09:28:22;;;;;;;3.60;2.00;;;27.00;74.50;;;;;;5031168;28;20052;-68
2021/06/03 09:31:02;;;;;;;2.05;1.85;;;26.70;73.90;;;;;;5048799;28;20029;-70
2021/06/03 09:33:44;;;;;;;4.75;2.28;;;26.50;73.70;;;;;;5030434;28;20036;-69
2021/06/03 09:36:13;;;;;;;2.33;1.98;;;26.50;74.50;;;;;;5048987;28;20442;-68
2021/06/03 09:38:51;;;;;;;3.60;2.00;;;26.60;74.50;;;;;;5030217;28;20358;-68
2021/06/03 09:41:19;;;;;;;4.55;2.10;;;26.60;74.10;;;;;;5030854;28;20029;-69
2021/06/03 09:43:46;;;;;;;2.42;1.80;;;26.90;74.70;;;;;;5048446;28;20493;-68
2021/06/03 09:46:15;;;;;;;1.92;1.83;;;27.30;74.30;;;;;;5048682;28;20033;-69
2021/06/03 09:48:48;;;;;;;4.38;2.28;;;27.40;73.50;;;;;;5047867;28;20112;-69
2021/06/03 09:51:35;;;;;;;3.90;2.20;;;27.50;72.70;;;;;;5026501;28;20057;-68
2021/06/03 09:54:02;;;;;;;3.63;1.90;;;27.30;72.60;;;;;;5028997;28;20108;-69
2021/06/03 09:56:37;;;;;;;2.75;1.60;;;27.30;73.30;;;;;;5026789;28;20036;-70
2021/06/03 09:59:07;;;;;;;3.95;2.75;;;27.70;72.80;;;;;;5028240;28;20057;-69
2021/06/03 10:02:14;;;;;;;2.47;1.73;;;28.00;72.40;;;;;;5028662;28;20025;-70
2021/06/03 10:04:50;;;;;;;2.78;2.00;;;28.00;71.00;;;;;;4966908;28;20149;-70
2021/06/03 10:07:17;;;;;;;3.30;1.40;;;27.90;71.10;;;;;;4967545;28;20047;-69
2021/06/03 10:09:48;;;;;;;3.60;1.75;;;28.00;71.40;;;;;;4951689;28;20031;-69
2021/06/03 10:12:23;;;;;;;3.50;1.60;;;28.10;72.40;;;;;;4970906;28;20069;-70
2021/06/03 10:15:09;;;;;;;3.17;2.35;;;28.10;71.20;;;;;;4954519;28;20057;-69
2021/06/03 10:18:00;;;;;;;2.60;1.77;;;28.00;71.20;;;;;;4954293;28;20031;-69
2021/06/03 10:20:43;;;;;;;2.08;1.70;;;27.90;70.60;;;;;;4970321;28;20246;-70
2021/06/03 10:23:12;;;;;;;3.15;1.90;;;28.00;71.30;;;;;;4971051;28;20035;-69
2021/06/03 10:25:41;;;;;;;4.38;1.95;;;28.00;70.50;;;;;;4969988;28;20340;-69
2021/06/03 10:28:11;;;;;;;2.63;1.92;;;28.10;70.20;;;;;;4970837;28;20151;-69
2021/06/03 10:30:44;;;;;;;1.73;1.63;;;28.20;69.70;;;;;;4953910;28;20027;-69
2021/06/03 10:33:13;;;;;;;4.78;1.88;;;28.20;70.40;;;;;;4970437;28;20039;-70
2021/06/03 10:35:41;;;;;;;3.30;1.77;;;28.40;68.50;;;;;;4970665;28;20034;-69
2021/06/03 10:38:10;;;;;;;3.08;2.13;;;28.60;68.10;;;;;;4970575;28;20049;-70
2021/06/03 10:40:57;;;;;;;2.28;1.98;;;28.70;68.10;;;;;;5002328;28;20098;-69
2021/06/03 10:43:23;;;;;;;6.53;1.35;;;28.50;68.30;;;;;;5032281;28;20034;-69
2021/06/03 10:45:50;;;;;;;2.80;1.90;;;28.60;68.30;;;;;;5030258;28;20313;-69
2021/06/03 10:48:16;;;;;;;2.95;1.60;;;28.70;68.80;;;;;;5031900;28;20040;-69
2021/06/03 10:50:49;;;;;;;5.45;1.60;;;28.50;65.40;;;;;;5035371;28;20058;-69
2021/06/03 10:53:23;;;;;;;3.20;1.27;;;28.30;65.90;;;;;;5051742;28;20327;-68
2021/06/03 10:55:51;;;;;;;4.00;1.33;;;28.00;64.70;;;;;;5032987;28;20037;-67
2021/06/03 10:58:29;;;;;;;1.33;1.10;;;27.90;61.30;;;;;;5032393;28;20459;-69
2021/06/03 11:01:04;;;;;;;2.30;1.08;;;28.10;60.70;;;;;;5050947;28;20033;-69
2021/06/03 11:03:38;;;;;;;4.85;1.48;;;28.10;58.60;;;;;;5032509;28;20033;-67
2021/06/03 11:06:13;;;;;;;2.75;1.17;;;28.20;57.60;;;;;;5050700;28;20021;-69
2021/06/03 11:08:45;;;;;;;2.17;1.42;;;28.30;58.90;;;;;;5031863;28;20422;-68
2021/06/03 11:11:14;;;;;;;2.20;1.30;;;28.50;63.30;;;;;;5050887;28;20021;-68
2021/06/03 11:13:46;;;;;;;2.20;1.23;;;28.50;64.20;;;;;;5032378;28;20330;-68
2021/06/03 11:16:18;;;;;;;2.88;1.30;;;28.50;63.70;;;;;;5032402;28;20033;-69
2021/06/03 11:18:46;;;;;;;1.63;1.50;;;28.50;64.30;;;;;;5049862;28;20045;-68
2021/06/03 11:21:34;;;;;;;3.72;1.30;;;28.90;65.20;;;;;;5050005;28;20113;-68
2021/06/03 11:24:04;;;;;;;2.30;1.50;;;28.20;65.50;;;;;;5050493;28;20029;-67
2021/06/03 11:26:41;;;;;;;3.95;1.38;;;28.50;66.60;;;;;;5050812;28;20017;-68
2021/06/03 11:29:28;;;;;;;2.38;1.40;;;28.80;65.40;;;;;;5032203;28;20029;-68
2021/06/03 11:32:05;;;;;;;2.00;1.55;;;28.20;65.90;;;;;;5049898;28;20090;-68
2021/06/03 11:35:04;;;;;;;1.58;1.17;;;28.90;66.80;;;;;;5050831;28;20051;-67
2021/06/03 11:37:35;;;;;;;3.20;1.60;;;28.80;64.70;;;;;;5032519;28;20033;-67
2021/06/03 11:40:07;;;;;;;2.50;1.75;;;28.50;65.60;;;;;;5032611;28;20431;-68
2021/06/03 11:42:38;;;;;;;3.30;1.63;;;28.80;65.30;;;;;;5050308;28;20029;-75
2021/06/03 11:45:32;;;;;;;1.85;1.50;;;28.40;65.40;;;;;;5032173;28;20036;-67
2021/06/03 11:48:01;;;;;;;6.45;1.98;;;28.20;65.80;;;;;;5050329;28;20465;-71
2021/06/03 11:50:30;;;;;;;4.55;1.50;;;28.20;67.00;;;;;;5050051;28;20103;-68
2021/06/03 11:52:56;;;;;;;3.55;1.33;;;28.60;66.20;;;;;;5049872;28;20029;-68
2021/06/03 11:55:30;;;;;;;1.80;1.38;;;28.70;66.30;;;;;;5049575;28;20078;-68
2021/06/03 11:58:40;;;;;;;1.92;1.40;;;28.60;66.30;;;;;;5031161;28;20029;-67
2021/06/03 12:01:33;;;;;;;2.60;1.45;;;28.60;67.00;;;;;;5028583;28;20041;-68
2021/06/03 12:04:06;;;;;;;2.33;1.42;;;28.60;65.90;;;;;;5046817;28;20045;-68
2021/06/03 12:06:32;;;;;;;2.58;1.52;;;28.30;65.80;;;;;;5031863;28;20154;-68
2021/06/03 12:09:02;;;;;;;5.32;1.48;;;28.20;66.70;;;;;;5048589;28;20021;-68
2021/06/03 12:11:36;;;;;;;7.85;1.85;;;28.40;66.80;;;;;;5049719;28;20083;-68
2021/06/03 12:14:07;;;;;;;2.08;1.45;;;28.50;67.00;;;;;;5031548;28;20052;-69
2021/06/03 12:16:44;;;;;;;2.72;1.92;;;28.30;66.70;;;;;;5031772;28;20110;-68
2021/06/03 12:19:13;;;;;;;2.75;1.65;;;28.00;67.70;;;;;;5049879;28;20374;-68
2021/06/03 12:21:41;;;;;;;1.90;1.20;;;27.80;68.00;;;;;;5049227;28;20033;-69
2021/06/03 12:24:07;;;;;;;2.75;1.88;;;27.90;68.00;;;;;;5031641;28;20087;-68
2021/06/03 12:26:37;;;;;;;1.73;1.63;;;28.10;68.70;;;;;;5049541;28;20048;-68
2021/06/03 12:29:04;;;;;;;4.43;1.38;;;28.50;68.50;;;;;;5049791;28;20319;-68
2021/06/03 12:31:30;;;;;;;2.42;2.03;;;28.90;67.40;;;;;;5031883;28;20051;-68
2021/06/03 12:33:57;;;;;;;2.45;1.45;;;29.10;67.70;;;;;;5047971;28;20246;-69
2021/06/03 12:36:26;;;;;;;3.00;1.75;;;29.00;65.80;;;;;;5031533;28;20094;-68
2021/06/03 12:38:56;;;;;;;2.22;1.75;;;28.90;65.80;;;;;;5030977;28;20033;-67
2021/06/03 12:41:29;;;;;;;3.35;1.95;;;28.60;66.80;;;;;;5049807;28;20025;-68
2021/06/03 12:43:59;;;;;;;2.65;1.67;;;28.30;67.20;;;;;;5031575;28;20089;-68
2021/06/03 12:46:37;;;;;;;1.48;1.38;;;28.50;66.50;;;;;;5049749;28;20044;-68
2021/06/03 12:49:25;;;;;;;3.20;1.85;;;28.70;65.90;;;;;;5049947;28;20036;-68
2021/06/03 12:52:05;;;;;;;3.67;2.35;;;28.60;67.00;;;;;;5030336;28;20060;-68
2021/06/03 12:54:32;;;;;;;;;;;28.90;66.50;;;;;;5050091;28;20486;-68
2021/06/03 12:57:00;;;;;;;2.00;1.35;;;29.00;65.90;;;;;;5031239;28;19913;-69
2021/06/03 12:59:31;;;;;;;3.20;1.58;;;29.30;64.70;;;;;;5031689;28;20055;-68
2021/06/03 13:02:05;;;;;;;2.05;1.67;;;29.10;64.40;;;;;;5049311;28;20457;-68